Saint Louis, Missouri
Traffic Map
Current Weather Conditions
Saint Louis, Missouri
Clear Haze
Clear
17°
Feels Like: 17°
Wind Chill: 17° Ceiling: Unl
Heat Index: 17° Visibility: 5mi
Dew Point: 14° Wind: 0mph
Humidity: 88% Direction: ° ()
Pressure: 30.33in Gusts: 0mph
Raw Report DataKCPS 101053Z AUTO 00000KT 5SM BR CLR M08/M10 A3033 RMK AO2 SLP276 I1000 T10831100 $
Traffic Incident Summary
Active as of:
Severity:
Category:
InformationThere was an issue retrieving the traffic information for this location. Please try a different location or try again shortly.
Advertisements